»·PEaware :: SKY412 KFHR-KORS

SKY412 :: KFHR-KORS

FLIGHT INFORMATION

Flight Status: Arrived
Operator:
Sky High Charters
More flights by this operator :: More flights under this callsign
Pilot: Christian E. (23964)
Aircraft: Diamond DA-62
(DA62)
More flights by this aircraft type
Origin: KFHR Friday Harbor
United States
Destination: KORS Orcas Island
United States
More flights between these airports :: More routes between these airports
Route: FHR APDON
File this flight plan on PilotEdge
Remarks: SCENARIO 3
Altitude:
(Current/Filed)
5,000ft
Speed:
(Current/Filed)
140kts
Departed: 06-Jun-20 09:05 AM
Arrived: 06-Jun-20 09:33 AM
Distance/Time
Traveled:
12nm/0:28
Distance/Time
To Go:
Arrived

Flight Plot

Page will automatically refresh every two minutes.

Flight plan parsing failed; only flown route is shown


Map Options




Map Legend


Flown Route
Filed Route
Departure Airport
Arrival Airport
Navaid (VOR, NDB)
Fix

Horizontal Profiles

Position Reports

Time Latitude Longitude Heading Altitude Ground
Speed
06-Jun-20 08:41 48.525566 -123.026144 88 117ft 0kts
06-Jun-20 08:42 48.525566 -123.026144 88 117ft 0kts
06-Jun-20 08:43 48.525566 -123.026144 88 117ft 0kts
06-Jun-20 08:44 48.525566 -123.026144 88 117ft 0kts
06-Jun-20 08:45 48.525566 -123.026144 88 117ft 0kts
06-Jun-20 08:47 48.525566 -123.026144 88 117ft 0kts
06-Jun-20 08:48 48.525566 -123.026144 88 117ft 0kts
06-Jun-20 08:49 48.525566 -123.026144 88 117ft 0kts
06-Jun-20 08:50 48.525566 -123.026144 88 117ft 0kts
06-Jun-20 08:51 48.525566 -123.026144 88 117ft 0kts
06-Jun-20 08:52 48.525566 -123.026144 88 117ft 0kts
06-Jun-20 08:53 48.525566 -123.026144 88 117ft 0kts
06-Jun-20 08:54 48.525566 -123.026144 88 117ft 0kts
06-Jun-20 08:55 48.525559 -123.026035 111 117ft 4kts
06-Jun-20 08:56 48.526564 -123.025482 90 117ft 0kts
06-Jun-20 08:57 48.526567 -123.025324 83 117ft 0kts
06-Jun-20 08:58 48.526567 -123.025324 83 117ft 0kts
06-Jun-20 08:59 48.526567 -123.025324 83 117ft 0kts
06-Jun-20 09:00 48.526567 -123.025324 83 117ft 0kts
06-Jun-20 09:01 48.526567 -123.025324 83 117ft 0kts
06-Jun-20 09:01 48.526567 -123.025324 83 117ft 0kts
06-Jun-20 09:03 48.526567 -123.025324 83 117ft 0kts
06-Jun-20 09:04 48.526453 -123.024699 177 114ft 0kts
06-Jun-20 09:04 48.513895 -123.024563 182 420ft 95kts
06-Jun-20 09:06 48.490636 -123.009898 68 1640ft 106kts
06-Jun-20 09:06 48.507509 -123.015242 248 2447ft 105kts
06-Jun-20 09:08 48.477414 -123.020843 178 3466ft 95kts
06-Jun-20 09:08 48.469635 -122.996905 45 4319ft 111kts
06-Jun-20 09:09 48.497837 -123.009546 323 5011ft 133kts
06-Jun-20 09:10 48.532592 -123.003997 29 5001ft 147kts
06-Jun-20 09:11 48.569441 -122.975863 27 5000ft 149kts
06-Jun-20 09:12 48.606861 -122.948350 26 5000ft 150kts
06-Jun-20 09:13 48.644506 -122.920918 26 5000ft 150kts
06-Jun-20 09:14 48.682172 -122.893460 26 5000ft 150kts
06-Jun-20 09:15 48.719904 -122.865875 26 4999ft 150kts
06-Jun-20 09:16 48.757567 -122.838348 26 4999ft 150kts
06-Jun-20 09:17 48.796073 -122.813397 20 4938ft 152kts
06-Jun-20 09:18 48.836315 -122.791492 20 4441ft 152kts
06-Jun-20 09:19 48.876041 -122.770789 20 3999ft 147kts
06-Jun-20 09:20 48.912624 -122.747955 3 3992ft 143kts
06-Jun-20 09:21 48.952231 -122.750378 359 3508ft 141kts
06-Jun-20 09:22 48.961796 -122.718032 161 2709ft 124kts
06-Jun-20 09:23 48.927990 -122.728341 201 2003ft 122kts
06-Jun-20 09:24 48.898005 -122.753140 211 1991ft 125kts
06-Jun-20 09:25 48.869575 -122.785183 214 1888ft 124kts
06-Jun-20 09:26 48.840752 -122.809147 202 1891ft 114kts
06-Jun-20 09:27 48.813054 -122.832732 209 1910ft 117kts
06-Jun-20 09:28 48.786920 -122.855924 210 1917ft 95kts
06-Jun-20 09:29 48.762393 -122.877480 208 1325ft 108kts
06-Jun-20 09:30 48.740619 -122.896531 210 714ft 88kts
06-Jun-20 09:31 48.718953 -122.910477 180 188ft 83kts
06-Jun-20 09:32 48.704620 -122.910632 184 39ft 3kts
06-Jun-20 09:33 48.704439 -122.910116 89 38ft 0kts
06-Jun-20 09:34 48.705764 -122.909738 353 36ft 11kts
06-Jun-20 09:35 48.705949 -122.909572 178 35ft 0kts
06-Jun-20 09:36 48.705949 -122.909572 178 35ft 0kts
06-Jun-20 09:37 48.705949 -122.909572 178 35ft 0kts
06-Jun-20 09:38 48.705949 -122.909572 178 35ft 0kts
06-Jun-20 09:39 48.705949 -122.909572 178 35ft 0kts
06-Jun-20 09:40 48.705949 -122.909572 178 35ft 0kts

Navigation Log

Ident Type
Flight plan parsing failed, navigation log unavailable